Caraquet, Canada
Current Conditions -  °F | °C
As of 10:00 AM on Sunday 21 Dec 2014 (Local Time) from CZBF Reporting Station
Freezing Drizzle Freezing Drizzle  
Wind Chill: 18°   Ceiling: 1500
Heat Index: 18°   Visibility: 5mi
Dew Point: 14°   Wind: 0mph
Humidity: 86%   Direction: NA
Pressure: 30.42"   Gusts: NA
Location:  47.78°N, 64.95°W
Report Text: CZBF 211400Z 00000KT 5SM -FZDZ FEW008 OVC015 M08/M10 A3042 RMK SF1ST8 SF TR SLP307
Loading
Personal Weather Stations






























Interactive Weather Map New forecast layout! Learn more

10-Day Weather Forecast

Advertisements
Track Severe Weather on mobile